aviador You're here:

KSGF Decoded Metar

SPRINGFIELD in MO, USA
Report Time2017-06-25 05:52:00
UTC Time2017-06-25 06:55:29
Flight Rules vfr VFR
Wind180° at 03 kt
W.Decomp.*RWY 20: 2.8 kt HW 1.2 kt LCW
RWY 14: 2.4 kt HW 1.8 kt RCW
W.Rank180° ranks 4
Current wind is below 180° avg. (9.4)
Visibility9999 m
Phenomena:N/A
Clouds:N/A
Expected CloudBase > 1,600 ft AGL from Temp-Dew spread
CeilingNone
Temp16°C (ISA +4)
Dew Point12°C (77% RH)
AAT15.5°C
QNH1024 hPa
Density Alt1,519 ft
Elevation1,280 ft
Report Wrong Elevation
Raw Report
KSGF 250552Z 18003KT 10SM CLR 16/12 A3024 RMK AO2 SLP231 T01560122
10244 20150 402560139 50005=

Extra information for KSGF:More info

Metar Taf Metar & Taf Last 4 Metars F.Rules Stats Wind Profile Meteogram Temp Stats Airport Information Weather charts Add Link Nearby VenuesMetar ALERT Operation Metar Decoded Social comments

AIRNAV info for KSGF